DC13 weather

Walter Reed Forest Glen Heliport
Washington, District of Columbia, United States

Public forecast

Using degrees Fahrenheit for public forecast. Weather courtesy of forecast.io.

METAR (pilot weather report)

Closest report is College Park Airport, 6.5 nm (12.0 km) ESE. Retrieved 2019/05/27 12:43 UTC (0 seconds ago):

KCGS 271243Z AUTO 36009KT 10SM SCT070 23/17 A2999 RMK AO1 T02280171

TAF (pilot weather forecast)

Closest forecast is Ronald Reagan Washington National Airport, 9.3 nm (17.2 km) S. Retrieved 2019/05/27 12:39 UTC (0 seconds ago):

TAF KDCA 271137Z 2712/2818 35008KT P6SM SCT025 BKN050 BKN130 FM280100 VRB03KT P6SM SCT050 BKN200 FM281400 17009KT P6SM SCT025 BKN130 FM281700 19010G20KT P6SM SCT050 BKN100